Time;durP1;ratioP1;P1;durP2;ratioP2;P2;SDS_P1;SDS_P2;PMS_P1;PMS_P2;Temp;Humidity;BMP_temperature;BMP_pressure;BME280_temperature;BME280_humidity;BME280_pressure;Samples;Min_cycle;Max_cycle;Signal;HPM_P1;HPM_P2
2022/09/22 05:00:54;;;;;;;2.17;2.03;;;8.90;97.20;;;;;;1694275;29;20180;-70
2022/09/22 05:01:45;;;;;;;2.70;2.50;;;8.90;97.20;;;;;;1694174;29;20232;-70
2022/09/22 05:02:37;;;;;;;2.47;2.13;;;8.90;97.20;;;;;;1693975;29;20200;-69
2022/09/22 05:03:27;;;;;;;2.60;2.40;;;8.90;97.20;;;;;;1694128;29;20452;-70
2022/09/22 05:04:19;;;;;;;2.80;2.60;;;8.90;97.20;;;;;;1694132;29;20706;-69
2022/09/22 05:05:11;;;;;;;2.92;2.30;;;8.90;97.20;;;;;;1694247;29;20215;-70
2022/09/22 05:06:03;;;;;;;3.60;2.40;;;9.00;97.20;;;;;;1694068;29;20203;-70
2022/09/22 05:06:54;;;;;;;2.55;2.35;;;9.00;97.20;;;;;;1694026;29;20211;-70
2022/09/22 05:07:49;;;;;;;3.80;2.90;;;8.90;97.20;;;;;;1694177;29;20209;-70
2022/09/22 05:08:39;;;;;;;2.50;2.30;;;8.90;97.20;;;;;;1694121;29;20211;-70
2022/09/22 05:09:32;;;;;;;2.83;2.60;;;8.90;97.20;;;;;;1693424;29;20204;-70
2022/09/22 05:10:24;;;;;;;3.72;2.70;;;8.90;97.20;;;;;;1694021;29;20734;-70
2022/09/22 05:11:15;;;;;;;3.80;2.53;;;8.90;97.20;;;;;;1694046;29;20212;-70
2022/09/22 05:12:06;;;;;;;2.50;2.30;;;8.90;97.20;;;;;;1694111;29;20238;-70
2022/09/22 05:12:58;;;;;;;2.83;2.63;;;8.80;97.20;;;;;;1694111;29;20306;-70
2022/09/22 05:13:49;;;;;;;2.72;2.53;;;8.80;97.20;;;;;;1693945;29;20215;-69
2022/09/22 05:14:41;;;;;;;2.53;2.33;;;8.80;97.20;;;;;;1694714;29;20207;-70
2022/09/22 05:15:33;;;;;;;3.15;2.13;;;8.80;97.20;;;;;;1694177;29;20451;-70
2022/09/22 05:16:26;;;;;;;3.35;2.63;;;8.80;97.20;;;;;;1694129;29;20215;-69
2022/09/22 05:17:17;;;;;;;3.40;2.55;;;8.80;97.20;;;;;;1693934;29;20215;-70
2022/09/22 05:18:09;;;;;;;2.73;2.53;;;8.80;97.20;;;;;;1694124;29;20655;-69
2022/09/22 05:19:00;;;;;;;4.53;2.50;;;8.80;97.20;;;;;;1693585;29;20217;-69
2022/09/22 05:19:53;;;;;;;2.80;2.60;;;8.80;97.20;;;;;;1693882;29;20204;-70
2022/09/22 05:20:44;;;;;;;3.45;2.30;;;8.80;97.20;;;;;;1693996;29;20663;-70
2022/09/22 05:21:36;;;;;;;3.05;2.75;;;8.80;97.20;;;;;;1693957;29;20208;-70
2022/09/22 05:22:27;;;;;;;3.03;2.50;;;8.80;97.20;;;;;;1694120;29;20203;-70
2022/09/22 05:23:19;;;;;;;2.70;2.50;;;8.80;97.20;;;;;;1694147;29;20404;-70
2022/09/22 05:24:10;;;;;;;3.60;2.60;;;8.80;97.20;;;;;;1693997;29;20274;-70
2022/09/22 05:25:01;;;;;;;3.77;2.50;;;8.80;97.20;;;;;;1693931;29;20686;-69
2022/09/22 05:25:52;;;;;;;3.00;2.80;;;8.80;97.20;;;;;;1694126;29;20211;-70
2022/09/22 05:26:44;;;;;;;4.13;2.77;;;8.80;97.20;;;;;;1693814;29;20214;-70
2022/09/22 05:27:34;;;;;;;4.55;2.40;;;8.80;97.20;;;;;;1694095;29;20203;-70
2022/09/22 05:28:26;;;;;;;3.17;2.50;;;8.80;97.20;;;;;;1694028;29;20207;-70
2022/09/22 05:29:17;;;;;;;5.50;2.80;;;8.80;97.20;;;;;;1693590;29;20693;-69
2022/09/22 05:30:10;;;;;;;2.53;2.33;;;8.80;97.20;;;;;;1693864;29;20743;-69
2022/09/22 05:31:00;;;;;;;3.03;2.72;;;8.80;97.20;;;;;;1693849;29;20691;-70
2022/09/22 05:31:53;;;;;;;2.90;2.70;;;8.90;97.20;;;;;;1694046;29;20690;-70
2022/09/22 05:32:45;;;;;;;2.80;2.60;;;8.90;97.20;;;;;;1694022;29;20709;-70
2022/09/22 05:33:37;;;;;;;6.32;3.15;;;8.90;97.20;;;;;;1693991;29;20204;-70
2022/09/22 05:34:28;;;;;;;4.45;3.00;;;8.90;97.20;;;;;;1694172;29;20208;-70
2022/09/22 05:35:21;;;;;;;3.30;3.00;;;8.90;97.20;;;;;;1693995;29;20259;-70
2022/09/22 05:36:12;;;;;;;3.53;3.22;;;8.90;97.20;;;;;;1694126;29;20214;-69
2022/09/22 05:37:04;;;;;;;3.43;3.13;;;8.90;97.20;;;;;;1693783;29;20638;-70
2022/09/22 05:37:55;;;;;;;6.90;3.40;;;8.90;97.20;;;;;;1694035;29;20455;-70
2022/09/22 05:38:46;;;;;;;3.47;3.17;;;8.90;97.20;;;;;;1693974;29;20203;-70
2022/09/22 05:39:37;;;;;;;4.00;3.60;;;8.90;97.20;;;;;;1693120;29;20326;-70
2022/09/22 05:40:29;;;;;;;4.80;3.20;;;9.00;97.20;;;;;;1693964;29;20234;-70
2022/09/22 05:41:20;;;;;;;3.20;3.00;;;9.00;97.20;;;;;;1693847;29;20204;-70
2022/09/22 05:42:12;;;;;;;4.10;3.07;;;9.00;97.20;;;;;;1694013;29;20223;-70
2022/09/22 05:43:03;;;;;;;3.40;3.10;;;9.00;97.20;;;;;;1693897;29;20212;-70
2022/09/22 05:43:54;;;;;;;3.37;3.07;;;9.00;97.20;;;;;;1693834;29;20204;-70
2022/09/22 05:44:45;;;;;;;2.92;2.63;;;9.00;97.20;;;;;;1693896;29;20207;-70
2022/09/22 05:45:37;;;;;;;6.13;3.70;;;9.00;97.20;;;;;;1693904;29;20203;-70
2022/09/22 05:46:27;;;;;;;3.70;2.92;;;9.00;97.20;;;;;;1693899;29;20212;-70
2022/09/22 05:47:20;;;;;;;3.30;3.00;;;9.00;97.20;;;;;;1693734;29;20210;-70
2022/09/22 05:48:11;;;;;;;3.47;3.17;;;9.10;97.20;;;;;;1693751;29;20200;-70
2022/09/22 05:49:03;;;;;;;3.70;3.40;;;9.10;97.20;;;;;;1693342;29;20220;-70
2022/09/22 05:49:54;;;;;;;5.18;3.60;;;9.10;97.20;;;;;;1694030;29;20214;-69
2022/09/22 05:50:45;;;;;;;5.23;4.23;;;9.10;97.20;;;;;;1693864;29;20207;-70
2022/09/22 05:51:36;;;;;;;8.60;6.50;;;9.10;97.20;;;;;;1693645;29;20444;-70
2022/09/22 05:52:28;;;;;;;9.60;6.70;;;9.10;97.20;;;;;;1693976;29;20207;-70
2022/09/22 05:53:19;;;;;;;8.38;5.85;;;9.10;97.20;;;;;;1693911;29;20907;-70
2022/09/22 05:54:11;;;;;;;12.90;8.70;;;9.20;97.20;;;;;;1693993;29;20606;-70
2022/09/22 05:55:02;;;;;;;17.88;13.35;;;9.20;97.20;;;;;;1693892;29;20590;-70
2022/09/22 05:55:55;;;;;;;18.13;12.32;;;9.20;97.20;;;;;;1693973;29;20263;-69
2022/09/22 05:56:46;;;;;;;19.63;13.60;;;9.20;97.20;;;;;;1693704;29;20685;-70
2022/09/22 05:57:38;;;;;;;22.27;16.47;;;9.20;97.20;;;;;;1694021;29;20576;-72
2022/09/22 05:58:28;;;;;;;21.30;16.58;;;9.20;97.20;;;;;;1693788;29;20200;-70
2022/09/22 05:59:20;;;;;;;23.13;17.40;;;9.30;97.20;;;;;;1693408;29;20303;-70
2022/09/22 06:00:11;;;;;;;30.20;19.08;;;9.30;97.20;;;;;;1694038;29;20212;-70
2022/09/22 06:01:03;;;;;;;29.77;20.45;;;9.30;97.20;;;;;;1693773;29;20998;-70
2022/09/22 06:01:54;;;;;;;30.52;21.63;;;9.30;97.20;;;;;;1693907;29;20224;-70
2022/09/22 06:02:47;;;;;;;33.13;22.40;;;9.30;97.20;;;;;;1694032;29;20208;-70
2022/09/22 06:03:38;;;;;;;44.78;29.33;;;9.40;97.20;;;;;;1693925;29;20204;-70
2022/09/22 06:04:30;;;;;;;49.00;30.77;;;9.40;97.20;;;;;;1693954;29;20231;-70
2022/09/22 06:05:20;;;;;;;47.65;29.98;;;9.40;97.20;;;;;;1693872;29;20208;-70
2022/09/22 06:06:13;;;;;;;41.37;28.43;;;9.40;97.20;;;;;;1693993;29;20204;-70
2022/09/22 06:07:05;;;;;;;38.42;24.80;;;9.40;97.20;;;;;;1693757;29;20216;-70
2022/09/22 06:08:00;;;;;;;37.53;23.75;;;9.40;97.20;;;;;;1693735;29;20616;-70
2022/09/22 06:08:51;;;;;;;27.17;18.02;;;9.50;97.20;;;;;;1693986;29;20792;-70
2022/09/22 06:09:43;;;;;;;23.50;16.60;;;9.50;97.20;;;;;;1693573;29;20211;-70
2022/09/22 06:10:35;;;;;;;24.55;16.48;;;9.50;97.20;;;;;;1693935;29;20519;-70
2022/09/22 06:11:27;;;;;;;21.20;14.70;;;9.50;97.20;;;;;;1693706;29;20203;-70
2022/09/22 06:12:18;;;;;;;19.65;13.40;;;9.60;97.20;;;;;;1693995;29;20207;-70
2022/09/22 06:13:11;;;;;;;18.42;12.85;;;9.60;97.20;;;;;;1693894;29;20737;-70
2022/09/22 06:14:01;;;;;;;16.67;11.45;;;9.60;97.20;;;;;;1693896;29;20235;-70
2022/09/22 06:14:53;;;;;;;17.47;11.97;;;9.60;97.20;;;;;;1693921;29;20207;-70
2022/09/22 06:15:45;;;;;;;15.55;9.75;;;9.60;97.20;;;;;;1693835;29;20965;-70
2022/09/22 06:16:37;;;;;;;16.58;11.10;;;9.60;97.20;;;;;;1693893;29;20210;-70
2022/09/22 06:17:27;;;;;;;13.55;10.55;;;9.70;97.20;;;;;;1693911;29;20212;-70
2022/09/22 06:18:25;;;;;;;13.30;10.60;;;9.70;97.20;;;;;;1693796;29;20199;-70
2022/09/22 06:19:15;;;;;;;13.50;9.40;;;9.70;97.20;;;;;;1693343;29;20212;-70
2022/09/22 06:20:08;;;;;;;10.33;9.20;;;9.70;97.20;;;;;;1693676;29;20235;-70
2022/09/22 06:20:58;;;;;;;9.45;8.30;;;9.70;97.20;;;;;;1693705;29;20227;-70
2022/09/22 06:21:51;;;;;;;9.07;8.13;;;9.70;97.20;;;;;;1693839;29;20219;-70
2022/09/22 06:22:43;;;;;;;8.20;7.40;;;9.80;97.20;;;;;;1693811;29;20208;-70
2022/09/22 06:23:35;;;;;;;7.72;6.85;;;9.80;97.20;;;;;;1693857;29;20204;-70
2022/09/22 06:24:27;;;;;;;6.18;5.57;;;9.90;97.20;;;;;;1693797;29;20228;-70
2022/09/22 06:25:18;;;;;;;5.70;5.05;;;9.90;97.20;;;;;;1693869;29;20725;-70
2022/09/22 06:26:10;;;;;;;5.85;5.35;;;9.90;97.20;;;;;;1693913;29;20308;-70
2022/09/22 06:27:01;;;;;;;5.38;4.80;;;9.90;97.20;;;;;;1693554;29;20210;-70
2022/09/22 06:27:59;;;;;;;5.25;4.80;;;10.00;97.20;;;;;;1693693;29;20215;-70
2022/09/22 06:28:51;;;;;;;4.20;3.90;;;10.00;97.20;;;;;;1694055;29;20212;-70
2022/09/22 06:29:42;;;;;;;4.35;3.95;;;10.00;97.20;;;;;;1693364;29;20224;-69
2022/09/22 06:30:35;;;;;;;5.70;4.30;;;10.00;97.20;;;;;;1693737;29;20206;-71
2022/09/22 06:31:25;;;;;;;3.90;3.55;;;10.10;97.20;;;;;;1693652;29;20207;-70
2022/09/22 06:32:17;;;;;;;4.37;3.97;;;10.10;97.20;;;;;;1693961;29;20207;-70
2022/09/22 06:33:10;;;;;;;4.20;3.80;;;10.10;97.20;;;;;;1693863;29;20692;-70
2022/09/22 06:34:03;;;;;;;3.88;3.58;;;10.10;97.20;;;;;;1693813;29;20207;-70
2022/09/22 06:34:54;;;;;;;4.63;3.95;;;10.10;97.20;;;;;;1693958;29;20215;-70
2022/09/22 06:35:46;;;;;;;4.85;3.63;;;10.20;97.20;;;;;;1693863;29;20308;-70
2022/09/22 06:36:41;;;;;;;4.30;3.90;;;10.20;97.20;;;;;;1693644;29;20207;-70
2022/09/22 06:37:34;;;;;;;4.80;4.40;;;10.30;97.20;;;;;;1693943;29;20208;-70
2022/09/22 06:38:25;;;;;;;4.60;4.18;;;10.30;97.20;;;;;;1693509;29;20196;-70
2022/09/22 06:39:17;;;;;;;4.90;4.40;;;10.30;97.20;;;;;;1693332;29;20239;-70
2022/09/22 06:40:08;;;;;;;4.55;4.15;;;10.40;97.20;;;;;;1693903;29;20211;-70
2022/09/22 06:41:01;;;;;;;5.53;4.25;;;10.40;97.20;;;;;;1693766;29;20199;-70
2022/09/22 06:41:54;;;;;;;4.97;4.55;;;10.40;97.20;;;;;;1693845;29;20760;-70
2022/09/22 06:42:46;;;;;;;5.00;3.70;;;10.40;97.20;;;;;;1693794;29;20212;-69
2022/09/22 06:43:37;;;;;;;4.32;3.47;;;10.40;97.20;;;;;;1693802;29;20583;-69
2022/09/22 06:44:30;;;;;;;4.40;3.90;;;10.50;97.20;;;;;;1693794;29;20705;-70
2022/09/22 06:45:20;;;;;;;4.47;4.13;;;10.50;97.20;;;;;;1693740;29;20580;-70
2022/09/22 06:46:12;;;;;;;4.73;4.33;;;10.50;97.20;;;;;;1693853;29;20566;-69
2022/09/22 06:47:04;;;;;;;5.10;4.60;;;10.50;97.20;;;;;;1693519;29;20662;-69
2022/09/22 06:47:58;;;;;;;4.30;3.85;;;10.50;97.20;;;;;;1693953;29;20212;-69
2022/09/22 06:48:49;;;;;;;4.03;3.72;;;10.50;97.20;;;;;;1693498;29;20561;-70
2022/09/22 06:49:42;;;;;;;5.93;4.40;;;10.50;97.20;;;;;;1693046;29;20200;-70
2022/09/22 06:50:33;;;;;;;4.70;4.20;;;10.50;97.20;;;;;;1693516;29;20214;-70
2022/09/22 06:51:25;;;;;;;4.77;4.37;;;10.50;97.20;;;;;;1693238;29;20631;-69
2022/09/22 06:52:16;;;;;;;4.55;4.13;;;10.50;97.20;;;;;;1693745;29;20204;-70
2022/09/22 06:53:11;;;;;;;5.57;5.03;;;10.50;97.20;;;;;;1693673;29;20235;-70
2022/09/22 06:54:03;;;;;;;4.25;3.95;;;10.50;97.20;;;;;;1693701;29;20271;-70
2022/09/22 06:54:59;;;;;;;4.80;4.40;;;10.50;97.20;;;;;;1693890;29;20200;-70
2022/09/22 06:55:50;;;;;;;5.80;5.30;;;10.60;97.20;;;;;;1693917;29;20207;-70
2022/09/22 06:56:42;;;;;;;4.50;4.10;;;10.60;97.20;;;;;;1693531;29;20208;-69
2022/09/22 06:57:33;;;;;;;4.68;4.20;;;10.70;97.20;;;;;;1693823;29;20757;-70
2022/09/22 06:58:26;;;;;;;4.27;3.93;;;10.70;97.20;;;;;;1693498;29;20638;-69
2022/09/22 06:59:17;;;;;;;5.07;4.32;;;10.70;97.20;;;;;;1693186;29;20208;-70
2022/09/22 07:00:11;;;;;;;4.77;4.30;;;10.80;97.20;;;;;;1693559;29;20204;-70
2022/09/22 07:01:06;;;;;;;5.28;4.32;;;10.80;97.20;;;;;;1693528;29;20580;-70
2022/09/22 07:01:57;;;;;;;3.80;3.50;;;10.80;97.20;;;;;;1693607;29;20272;-70
2022/09/22 07:02:48;;;;;;;4.53;4.20;;;10.90;97.20;;;;;;1687221;29;20197;-69
2022/09/22 07:03:42;;;;;;;4.67;4.27;;;10.90;97.20;;;;;;1687319;29;20200;-70
2022/09/22 07:04:33;;;;;;;4.82;4.43;;;10.90;97.20;;;;;;1687227;29;20295;-69
2022/09/22 07:05:26;;;;;;;5.10;4.60;;;11.00;97.20;;;;;;1687263;29;20216;-70
2022/09/22 07:06:17;;;;;;;6.28;5.38;;;11.00;97.20;;;;;;1687174;29;20457;-70
2022/09/22 07:07:08;;;;;;;4.57;3.95;;;11.00;97.20;;;;;;1687233;29;20245;-72
2022/09/22 07:08:00;;;;;;;4.90;4.50;;;11.00;97.20;;;;;;1687248;29;20252;-70
2022/09/22 07:08:51;;;;;;;5.78;4.75;;;11.00;97.20;;;;;;1687289;29;20448;-70
2022/09/22 07:09:43;;;;;;;6.50;4.83;;;11.00;97.20;;;;;;1686749;29;20208;-70
2022/09/22 07:10:36;;;;;;;6.85;4.43;;;11.10;97.20;;;;;;1690318;29;20208;-70
2022/09/22 07:11:29;;;;;;;6.25;4.50;;;11.10;97.20;;;;;;1693531;29;20642;-72
2022/09/22 07:12:21;;;;;;;7.18;4.70;;;11.00;97.20;;;;;;1693534;29;20216;-72
2022/09/22 07:13:12;;;;;;;5.07;4.57;;;11.00;97.20;;;;;;1693770;29;20296;-70
2022/09/22 07:14:04;;;;;;;5.32;4.82;;;11.00;97.20;;;;;;1693671;29;20208;-70
2022/09/22 07:14:56;;;;;;;5.30;4.80;;;11.10;97.20;;;;;;1693751;29;20678;-71
2022/09/22 07:15:47;;;;;;;5.35;4.85;;;11.10;97.20;;;;;;1693754;29;20232;-70
2022/09/22 07:16:39;;;;;;;5.57;4.97;;;11.10;97.20;;;;;;1693579;29;20206;-71
2022/09/22 07:17:31;;;;;;;6.75;4.50;;;11.20;97.20;;;;;;1693949;29;20459;-70
2022/09/22 07:18:23;;;;;;;5.03;4.43;;;11.20;97.20;;;;;;1693728;29;20214;-70
2022/09/22 07:19:14;;;;;;;4.85;4.32;;;11.20;97.20;;;;;;1693213;29;20208;-70
2022/09/22 07:20:07;;;;;;;5.87;5.30;;;11.30;97.20;;;;;;1693640;29;20211;-70
2022/09/22 07:21:03;;;;;;;6.07;4.53;;;11.40;97.20;;;;;;1693734;29;20199;-70
2022/09/22 07:21:54;;;;;;;5.97;4.85;;;11.40;97.20;;;;;;1694804;29;20235;-70
2022/09/22 07:22:45;;;;;;;5.20;4.70;;;11.50;97.20;;;;;;1694867;29;20587;-70
2022/09/22 07:23:37;;;;;;;4.73;4.23;;;11.50;97.20;;;;;;1694892;29;20207;-70
2022/09/22 07:24:28;;;;;;;4.80;4.40;;;11.50;97.20;;;;;;1694976;29;20231;-70
2022/09/22 07:25:19;;;;;;;5.37;4.87;;;11.50;97.20;;;;;;1694736;29;20223;-70
2022/09/22 07:26:12;;;;;;;5.47;4.57;;;11.60;97.20;;;;;;1694980;29;20208;-70
2022/09/22 07:27:05;;;;;;;5.20;4.80;;;11.60;97.20;;;;;;1694667;29;20571;-70
2022/09/22 07:27:57;;;;;;;4.63;4.22;;;11.70;97.20;;;;;;1694909;29;20215;-70
2022/09/22 07:28:52;;;;;;;6.60;4.47;;;11.70;97.20;;;;;;1694928;29;20666;-70
2022/09/22 07:29:46;;;;;;;5.00;4.50;;;11.80;97.20;;;;;;1694281;29;20200;-70
2022/09/22 07:30:39;;;;;;;5.13;4.63;;;11.90;97.20;;;;;;1694628;29;20678;-70
2022/09/22 07:31:30;;;;;;;4.97;4.57;;;11.90;97.20;;;;;;1694597;29;20208;-70
2022/09/22 07:32:22;;;;;;;5.68;4.55;;;11.90;97.20;;;;;;1694852;29;20678;-70
2022/09/22 07:33:13;;;;;;;4.68;4.28;;;12.00;97.20;;;;;;1694753;29;20757;-70
2022/09/22 07:34:05;;;;;;;4.93;4.53;;;12.00;97.20;;;;;;1694801;29;20623;-70
2022/09/22 07:34:56;;;;;;;6.05;5.43;;;12.10;97.20;;;;;;1694482;29;20759;-71
2022/09/22 07:35:48;;;;;;;5.90;5.30;;;12.10;97.20;;;;;;1694964;29;20581;-70
2022/09/22 07:36:40;;;;;;;7.30;5.18;;;12.20;97.20;;;;;;1694498;29;20211;-70
2022/09/22 07:37:36;;;;;;;5.18;4.78;;;12.20;97.20;;;;;;1694778;29;20208;-70
2022/09/22 07:38:32;;;;;;;5.65;4.30;;;12.30;97.20;;;;;;1694874;29;20219;-70
2022/09/22 07:39:24;;;;;;;8.88;4.78;;;12.30;97.20;;;;;;1694259;29;20204;-71
2022/09/22 07:40:15;;;;;;;9.63;5.28;;;12.30;97.20;;;;;;1694788;29;20256;-70
2022/09/22 07:41:10;;;;;;;12.07;4.97;;;12.40;97.20;;;;;;1694452;29;20263;-70
2022/09/22 07:42:02;;;;;;;5.00;4.55;;;12.40;97.20;;;;;;1694672;29;20224;-71
2022/09/22 07:42:53;;;;;;;6.57;5.35;;;12.50;97.20;;;;;;1694883;29;20575;-70
2022/09/22 07:43:45;;;;;;;6.27;4.87;;;12.50;97.20;;;;;;1694787;29;20333;-70
2022/09/22 07:45:53;;;;;;;6.10;4.88;;;12.60;97.20;;;;;;1694883;29;20561;-70
2022/09/22 07:46:45;;;;;;;6.03;4.55;;;12.60;97.20;;;;;;1694539;29;20290;-70
2022/09/22 07:48:46;;;;;;;5.78;5.28;;;12.80;97.20;;;;;;1694933;29;20236;-71
2022/09/22 07:49:37;;;;;;;5.07;4.53;;;12.80;97.20;;;;;;1694332;29;20200;-72
2022/09/22 07:50:29;;;;;;;4.90;4.40;;;12.90;97.20;;;;;;1694569;29;20207;-70
2022/09/22 07:51:22;;;;;;;6.80;4.70;;;13.00;97.20;;;;;;1694689;29;20900;-70
2022/09/22 07:52:15;;;;;;;5.22;4.72;;;13.00;97.20;;;;;;1694904;29;20196;-72
2022/09/22 07:53:05;;;;;;;5.40;4.90;;;13.10;97.20;;;;;;1694671;29;20211;-70
2022/09/22 07:54:06;;;;;;;5.43;4.93;;;13.10;97.20;;;;;;1694765;29;20210;-70
2022/09/22 07:54:56;;;;;;;5.65;5.10;;;13.20;97.20;;;;;;1694866;29;20204;-70
2022/09/22 07:55:48;;;;;;;4.80;4.20;;;13.20;97.20;;;;;;1694833;29;20263;-70
2022/09/22 07:56:41;;;;;;;4.47;4.07;;;13.30;97.20;;;;;;1694527;29;20219;-70
2022/09/22 07:57:33;;;;;;;5.07;4.57;;;13.30;97.20;;;;;;1694799;29;20231;-70
2022/09/22 07:58:24;;;;;;;5.43;4.90;;;13.40;97.20;;;;;;1694784;29;20215;-72
2022/09/22 07:59:16;;;;;;;5.18;4.65;;;13.50;97.20;;;;;;1694228;29;20211;-70
2022/09/22 08:00:09;;;;;;;4.95;4.55;;;13.50;97.20;;;;;;1694797;29;20208;-70
2022/09/22 08:01:05;;;;;;;5.90;4.47;;;13.50;97.20;;;;;;1694314;29;20206;-72
2022/09/22 08:01:56;;;;;;;4.80;4.40;;;13.60;97.20;;;;;;1694699;29;20232;-72
2022/09/22 08:02:53;;;;;;;4.40;4.10;;;13.60;97.20;;;;;;1694825;29;20291;-72
2022/09/22 08:03:45;;;;;;;5.65;4.82;;;13.70;97.20;;;;;;1694776;29;20200;-72
2022/09/22 08:04:37;;;;;;;5.72;4.20;;;13.70;97.20;;;;;;1694887;29;20674;-72
2022/09/22 08:05:28;;;;;;;5.18;4.20;;;13.80;97.20;;;;;;1694462;29;20277;-72
2022/09/22 08:06:20;;;;;;;4.78;4.30;;;13.80;97.20;;;;;;1694627;29;20203;-72
2022/09/22 08:07:13;;;;;;;5.10;4.60;;;13.90;97.20;;;;;;1694558;29;20235;-70
2022/09/22 08:08:07;;;;;;;4.78;4.00;;;13.90;97.20;;;;;;1694714;29;20295;-70
2022/09/22 08:09:03;;;;;;;6.00;4.40;;;14.00;97.20;;;;;;1694721;29;20204;-70
2022/09/22 08:09:55;;;;;;;6.18;4.55;;;14.10;97.20;;;;;;1694817;29;20207;-70
2022/09/22 08:10:47;;;;;;;7.68;4.93;;;14.10;97.20;;;;;;1694354;29;20245;-72
2022/09/22 08:11:39;;;;;;;9.35;4.22;;;14.20;97.20;;;;;;1694526;29;20628;-72
2022/09/22 08:12:31;;;;;;;6.78;4.40;;;14.20;97.20;;;;;;1694811;29;20281;-72
2022/09/22 08:13:23;;;;;;;4.80;3.78;;;14.30;97.20;;;;;;1694644;29;20255;-70
2022/09/22 08:14:16;;;;;;;6.40;4.85;;;14.30;97.20;;;;;;1694704;29;20216;-71
2022/09/22 08:15:08;;;;;;;7.63;4.63;;;14.40;97.20;;;;;;1694718;29;20287;-71
2022/09/22 08:16:02;;;;;;;5.40;4.20;;;14.40;97.20;;;;;;1694736;29;20200;-71
2022/09/22 08:16:54;;;;;;;4.93;4.15;;;14.50;97.20;;;;;;1694494;29;20303;-71
2022/09/22 08:17:44;;;;;;;6.40;4.57;;;14.50;97.20;;;;;;1694607;29;20208;-71
2022/09/22 08:18:38;;;;;;;6.27;4.60;;;14.50;97.20;;;;;;1694699;29;20663;-71
2022/09/22 08:19:29;;;;;;;7.00;4.32;;;14.60;97.20;;;;;;1694138;29;20208;-71
2022/09/22 08:20:20;;;;;;;5.87;4.07;;;14.70;97.20;;;;;;1694597;29;20227;-71
2022/09/22 08:21:12;;;;;;;5.32;4.30;;;14.70;97.20;;;;;;1694325;29;20993;-71
2022/09/22 08:22:03;;;;;;;4.90;4.05;;;14.80;97.20;;;;;;1694456;29;20224;-71
2022/09/22 08:22:56;;;;;;;5.43;3.78;;;14.80;97.20;;;;;;1694643;29;20208;-71
2022/09/22 08:23:51;;;;;;;6.55;4.93;;;14.80;97.20;;;;;;1694567;29;20332;-71
2022/09/22 08:24:44;;;;;;;9.00;4.18;;;14.90;97.20;;;;;;1694635;29;20208;-71
2022/09/22 08:25:36;;;;;;;7.55;4.53;;;14.90;97.20;;;;;;1694585;29;20231;-71
2022/09/22 08:26:26;;;;;;;5.72;4.20;;;15.00;97.20;;;;;;1694756;29;20204;-70
2022/09/22 08:27:18;;;;;;;6.00;4.63;;;15.10;97.20;;;;;;1694419;29;20200;-70
2022/09/22 08:28:09;;;;;;;5.57;4.80;;;15.10;97.20;;;;;;1694618;29;20211;-70
2022/09/22 08:29:01;;;;;;;6.90;5.20;;;15.10;97.20;;;;;;1694048;29;20208;-70
2022/09/22 08:29:52;;;;;;;5.25;4.70;;;15.20;97.20;;;;;;1694571;29;20233;-70
2022/09/22 08:30:48;;;;;;;4.50;4.10;;;15.30;97.20;;;;;;1694315;29;20204;-70
2022/09/22 08:31:40;;;;;;;4.80;4.40;;;15.30;97.20;;;;;;1694162;29;20267;-70
2022/09/22 08:32:34;;;;;;;4.20;3.72;;;15.30;97.20;;;;;;1694595;29;20207;-72
2022/09/22 08:33:26;;;;;;;5.05;3.97;;;15.40;97.20;;;;;;1694574;29;20208;-70
2022/09/22 08:34:17;;;;;;;5.15;4.03;;;15.40;97.20;;;;;;1694615;29;20255;-70
2022/09/22 08:35:09;;;;;;;5.45;4.60;;;15.50;97.20;;;;;;1694154;29;20200;-70
2022/09/22 08:36:02;;;;;;;6.63;4.43;;;15.50;97.20;;;;;;1694341;29;20220;-70
2022/09/22 08:36:54;;;;;;;6.60;4.25;;;15.60;97.20;;;;;;1690880;29;20193;-71
2022/09/22 08:37:49;;;;;;;4.53;4.07;;;15.60;97.20;;;;;;1691743;29;20585;-70
2022/09/22 08:38:41;;;;;;;5.35;3.88;;;15.70;97.20;;;;;;1689013;29;20292;-70
2022/09/22 08:39:35;;;;;;;4.40;4.00;;;15.70;97.20;;;;;;1690995;29;20226;-70
2022/09/22 08:40:27;;;;;;;4.90;3.60;;;15.80;97.20;;;;;;1690238;29;20204;-70
2022/09/22 08:41:24;;;;;;;5.00;3.85;;;15.80;97.20;;;;;;1691523;29;20307;-70
2022/09/22 08:42:20;;;;;;;4.50;3.70;;;15.90;97.20;;;;;;1694346;29;20561;-70
2022/09/22 08:43:11;;;;;;;5.35;4.32;;;15.90;97.20;;;;;;1694476;29;20219;-70
2022/09/22 08:44:17;;;;;;;5.72;3.97;;;16.00;97.20;;;;;;1694229;29;20231;-70
2022/09/22 08:45:24;;;;;;;6.65;4.55;;;16.00;97.20;;;;;;1694480;29;20215;-70
2022/09/22 08:46:15;;;;;;;6.95;3.80;;;16.10;97.20;;;;;;1694475;29;20219;-70
2022/09/22 08:47:13;;;;;;;6.07;4.10;;;16.20;97.20;;;;;;1694229;29;20210;-70
2022/09/22 08:52:02;;;;;;;9.13;4.95;;;16.50;97.20;;;;;;1694625;29;20234;-70
2022/09/22 08:52:56;;;;;;;6.15;4.32;;;16.50;97.20;;;;;;1694474;29;20204;-69
2022/09/22 08:53:50;;;;;;;6.93;5.50;;;16.60;97.20;;;;;;1694439;29;20208;-71
2022/09/22 08:54:45;;;;;;;12.27;5.75;;;16.60;97.20;;;;;;1694435;29;20228;-70
2022/09/22 08:55:40;;;;;;;8.30;4.35;;;16.70;97.20;;;;;;1694442;29;20196;-70
2022/09/22 08:56:36;;;;;;;9.05;5.80;;;16.70;97.20;;;;;;1694598;29;20204;-71
2022/09/22 08:57:55;;;;;;;6.28;4.80;;;16.80;97.20;;;;;;1694376;29;20215;-71
2022/09/22 08:58:54;;;;;;;5.32;4.28;;;16.90;97.20;;;;;;1694276;29;20200;-70
2022/09/22 08:59:50;;;;;;;6.68;4.78;;;17.00;97.20;;;;;;1693893;29;20837;-70
2022/09/22 09:00:49;;;;;;;9.65;4.50;;;17.00;97.20;;;;;;1694039;29;20239;-70
2022/09/22 09:01:58;;;;;;;6.00;3.75;;;17.10;97.20;;;;;;1694390;29;20204;-70
2022/09/22 09:03:01;;;;;;;5.75;3.85;;;17.10;97.20;;;;;;1694432;29;20240;-70
2022/09/22 09:04:05;;;;;;;6.50;3.60;;;17.20;97.20;;;;;;1694547;29;20231;-70
2022/09/22 09:05:28;;;;;;;4.28;3.72;;;17.20;97.20;;;;;;1694315;29;20291;-70
2022/09/22 09:06:30;;;;;;;5.07;3.33;;;17.30;97.20;;;;;;1687903;29;20204;-71
2022/09/22 09:07:32;;;;;;;13.50;4.75;;;17.40;97.20;;;;;;1687655;29;20220;-70
2022/09/22 09:08:36;;;;;;;6.50;3.55;;;17.40;97.20;;;;;;1687843;29;20209;-70
2022/09/22 09:09:39;;;;;;;3.60;3.30;;;17.50;97.20;;;;;;1687344;29;20204;-70
2022/09/22 09:10:46;;;;;;;5.25;3.65;;;17.50;97.20;;;;;;1687856;29;20205;-70
2022/09/22 09:11:57;;;;;;;5.05;3.80;;;17.60;97.20;;;;;;1687660;29;20755;-71
2022/09/22 09:13:02;;;;;;;9.30;3.55;;;17.70;97.20;;;;;;1687877;29;20283;-70
2022/09/22 09:14:06;;;;;;;7.68;3.40;;;17.70;97.20;;;;;;1687846;29;20340;-70
2022/09/22 09:15:14;;;;;;;5.50;3.10;;;17.80;97.20;;;;;;1687864;29;20205;-70
2022/09/22 09:16:21;;;;;;;4.95;3.38;;;17.90;97.20;;;;;;1687821;29;20204;-70
2022/09/22 09:17:18;;;;;;;6.30;3.42;;;18.00;97.20;;;;;;1687724;29;20236;-70
2022/09/22 09:18:14;;;;;;;4.22;2.85;;;18.00;97.20;;;;;;1688016;29;20216;-70
2022/09/22 09:19:15;;;;;;;5.10;3.40;;;18.10;97.20;;;;;;1687777;29;20209;-70
2022/09/22 09:20:15;;;;;;;2.65;2.45;;;18.20;97.20;;;;;;1688202;29;20205;-70
2022/09/22 09:21:14;;;;;;;5.13;2.90;;;18.20;97.20;;;;;;1691788;29;20228;-70
2022/09/22 09:22:14;;;;;;;3.40;2.50;;;18.20;97.20;;;;;;1694171;29;20223;-70
2022/09/22 09:23:11;;;;;;;2.70;2.50;;;18.30;97.20;;;;;;1694139;29;20207;-70
2022/09/22 09:24:08;;;;;;;4.05;2.20;;;18.40;97.20;;;;;;1694170;29;20234;-70
2022/09/22 09:25:03;;;;;;;4.55;3.03;;;18.40;97.20;;;;;;1694341;29;20298;-70
2022/09/22 09:25:56;;;;;;;3.85;3.42;;;18.50;97.20;;;;;;1689052;29;20232;-70
2022/09/22 09:26:49;;;;;;;5.40;3.00;;;18.50;97.20;;;;;;1690763;29;20242;-70
2022/09/22 09:27:43;;;;;;;5.00;3.15;;;18.60;97.20;;;;;;1690222;29;20275;-70
2022/09/22 09:28:41;;;;;;;3.78;3.15;;;18.70;97.20;;;;;;1689178;29;20204;-70
2022/09/22 09:29:40;;;;;;;6.07;3.20;;;18.90;97.20;;;;;;1689907;29;20239;-70
2022/09/22 09:30:39;;;;;;;5.78;3.30;;;19.00;97.20;;;;;;1690311;29;20220;-70
2022/09/22 09:31:33;;;;;;;4.85;3.15;;;19.10;97.20;;;;;;1687597;29;20228;-70
2022/09/22 09:32:35;;;;;;;4.35;3.03;;;19.20;97.20;;;;;;1687663;29;20205;-70
2022/09/22 09:33:31;;;;;;;3.88;2.30;;;19.40;97.20;;;;;;1687663;29;20212;-70
2022/09/22 09:34:27;;;;;;;2.15;1.98;;;19.40;97.20;;;;;;1687708;29;20212;-70
2022/09/22 09:35:23;;;;;;;2.33;2.13;;;19.50;97.20;;;;;;1693435;29;20210;-70
2022/09/22 09:36:19;;;;;;;2.63;2.15;;;19.50;97.20;;;;;;1694132;29;20631;-70
2022/09/22 09:37:14;;;;;;;4.93;2.67;;;19.60;97.20;;;;;;1694054;29;20212;-70
2022/09/22 09:38:11;;;;;;;5.03;2.47;;;19.70;97.20;;;;;;1694155;29;20311;-70
2022/09/22 09:39:11;;;;;;;4.30;2.55;;;19.80;97.20;;;;;;1693643;29;20208;-70
2022/09/22 09:40:05;;;;;;;2.65;2.30;;;19.80;97.20;;;;;;1694149;29;20227;-70
2022/09/22 09:41:08;;;;;;;2.83;2.08;;;19.80;97.20;;;;;;1693726;29;20255;-70
2022/09/22 09:42:01;;;;;;;3.85;2.60;;;19.80;97.20;;;;;;1694131;29;20231;-70
2022/09/22 09:43:00;;;;;;;3.60;2.60;;;19.90;97.20;;;;;;1694174;29;20200;-70
2022/09/22 09:43:53;;;;;;;2.35;2.10;;;19.90;97.20;;;;;;1693808;29;20204;-70
2022/09/22 09:44:46;;;;;;;2.67;2.45;;;20.00;97.20;;;;;;1694088;29;20572;-70
2022/09/22 09:45:50;;;;;;;4.00;2.20;;;20.10;97.20;;;;;;1694096;29;20233;-70